Time;durP1;ratioP1;P1;durP2;ratioP2;P2;SDS_P1;SDS_P2;PMS_P1;PMS_P2;Temp;Humidity;BMP_temperature;BMP_pressure;BME280_temperature;BME280_humidity;BME280_pressure;Samples;Min_cycle;Max_cycle;Signal;HPM_P1;HPM_P2
2023/02/25 00:01:22;;;;;;;49.78;29.42;;;;;;;;;;5072445;28;20054;-73
2023/02/25 00:04:08;;;;;;;53.60;30.73;;;;;;;;;;5074140;28;20360;-72
2023/02/25 00:06:54;;;;;;;53.67;31.05;;;;;;;;;;5073371;28;20021;-72
2023/02/25 00:09:40;;;;;;;50.88;29.92;;;;;;;;;;5074426;28;20047;-72
2023/02/25 00:12:26;;;;;;;50.35;30.17;;;;;;;;;;5073285;28;20021;-72
2023/02/25 00:15:12;;;;;;;58.17;32.50;;;;;;;;;;5073736;28;20048;-73
2023/02/25 00:17:57;;;;;;;52.92;30.77;;;;;;;;;;5073096;28;20013;-71
2023/02/25 00:20:43;;;;;;;55.67;32.58;;;;;;;;;;5073019;28;20028;-72
2023/02/25 00:23:29;;;;;;;62.42;35.85;;;;;;;;;;5073096;28;20475;-73
2023/02/25 00:26:16;;;;;;;63.80;37.53;;;;;;;;;;5073450;28;20394;-73
2023/02/25 00:29:01;;;;;;;63.70;35.67;;;;;;;;;;5073316;28;20078;-71
2023/02/25 00:31:47;;;;;;;69.35;39.42;;;;;;;;;;5072422;28;20016;-72
2023/02/25 00:34:33;;;;;;;58.30;34.55;;;;;;;;;;5072656;28;20048;-73
2023/02/25 00:37:18;;;;;;;58.65;32.92;;;;;;;;;;5074148;28;20016;-72
2023/02/25 00:40:09;;;;;;;59.63;32.65;;;;;;;;;;5073132;28;20407;-72
2023/02/25 00:42:54;;;;;;;58.20;32.60;;;;;;;;;;5066388;28;20083;-72
2023/02/25 00:45:40;;;;;;;52.50;30.67;;;;;;;;;;5033684;28;20100;-72
2023/02/25 00:48:25;;;;;;;56.03;31.75;;;;;;;;;;5034087;28;20053;-73
2023/02/25 00:51:13;;;;;;;55.75;31.40;;;;;;;;;;5033595;28;20022;-70
2023/02/25 00:53:58;;;;;;;55.25;31.13;;;;;;;;;;5034256;28;20037;-73
2023/02/25 00:56:44;;;;;;;60.75;33.13;;;;;;;;;;5033346;28;20025;-73
2023/02/25 00:59:29;;;;;;;66.25;36.13;;;;;;;;;;5034785;28;20112;-72
2023/02/25 01:02:15;;;;;;;59.00;35.40;;;;;;;;;;5034137;28;20461;-71
2023/02/25 01:05:01;;;;;;;62.20;36.08;;;;;;;;;;5034413;28;20026;-72
2023/02/25 01:07:46;;;;;;;64.95;36.38;;;;;;;;;;5034198;28;20020;-72
2023/02/25 01:10:32;;;;;;;61.85;36.85;;;;;;;;;;5035209;28;20014;-72
2023/02/25 01:13:17;;;;;;;68.22;39.08;;;;;;;;;;5038828;28;20021;-72
2023/02/25 01:16:08;;;;;;;66.07;38.42;;;;;;;;;;5038315;28;20055;-73
2023/02/25 01:18:55;;;;;;;69.63;39.38;;;;;;;;;;5038042;28;20060;-73
2023/02/25 01:21:42;;;;;;;68.32;39.00;;;;;;;;;;5038343;28;20485;-73
2023/02/25 01:24:29;;;;;;;58.20;33.55;;;;;;;;;;5038275;28;20071;-72
2023/02/25 01:27:15;;;;;;;45.70;28.20;;;;;;;;;;5037299;28;20438;-72
2023/02/25 01:30:00;;;;;;;37.47;23.40;;;;;;;;;;5038477;28;20021;-72
2023/02/25 01:32:46;;;;;;;38.70;23.50;;;;;;;;;;5036597;28;20139;-72
2023/02/25 01:35:34;;;;;;;35.38;22.30;;;;;;;;;;5038415;28;20090;-73
2023/02/25 01:38:19;;;;;;;33.92;21.70;;;;;;;;;;5038692;28;20036;-72
2023/02/25 01:41:05;;;;;;;32.55;21.67;;;;;;;;;;5045635;28;20022;-72
2023/02/25 01:44:03;;;;;;;35.90;20.67;;;;;;;;;;5049826;28;20033;-72
2023/02/25 01:46:49;;;;;;;33.60;21.30;;;;;;;;;;5041374;28;20104;-73
2023/02/25 01:49:43;;;;;;;31.30;20.40;;;;;;;;;;5039433;28;20044;-74
2023/02/25 01:52:29;;;;;;;30.15;20.08;;;;;;;;;;5038051;28;20025;-73
2023/02/25 01:55:15;;;;;;;30.23;19.17;;;;;;;;;;5039884;28;20017;-72
2023/02/25 01:58:01;;;;;;;32.20;18.73;;;;;;;;;;5042733;28;20037;-71
2023/02/25 02:00:48;;;;;;;32.45;19.52;;;;;;;;;;5044175;28;20469;-72
2023/02/25 02:03:34;;;;;;;31.48;19.35;;;;;;;;;;5040879;28;20021;-72
2023/02/25 02:06:33;;;;;;;33.38;19.80;;;;;;;;;;5038424;28;20068;-73
2023/02/25 02:09:22;;;;;;;31.95;19.02;;;;;;;;;;5038580;28;20036;-73
2023/02/25 02:12:08;;;;;;;35.28;20.48;;;;;;;;;;5037127;28;20025;-73
2023/02/25 02:14:56;;;;;;;34.60;20.05;;;;;;;;;;5037167;28;20021;-71
2023/02/25 02:18:01;;;;;;;35.80;21.10;;;;;;;;;;5036760;28;20033;-73
2023/02/25 02:21:19;;;;;;;59.78;22.73;;;;;;;;;;5036115;28;20036;-71
2023/02/25 02:24:23;;;;;;;36.22;22.20;;;;;;;;;;5011781;28;20033;-72
2023/02/25 02:27:11;;;;;;;42.40;22.27;;;;;;;;;;5036089;28;20033;-73
2023/02/25 02:30:26;;;;;;;41.22;20.90;;;;;;;;;;5037542;28;20056;-72
2023/02/25 02:33:30;;;;;;;35.08;21.77;;;;;;;;;;5005412;28;20375;-72
2023/02/25 02:36:36;;;;;;;38.08;21.92;;;;;;;;;;5035969;28;20108;-74
2023/02/25 02:39:24;;;;;;;43.55;23.05;;;;;;;;;;5033279;28;20026;-74
2023/02/25 02:42:16;;;;;;;46.58;22.75;;;;;;;;;;5037005;28;20017;-73
2023/02/25 02:45:05;;;;;;;43.15;22.88;;;;;;;;;;5036832;28;20030;-74
2023/02/25 02:47:56;;;;;;;40.63;22.38;;;;;;;;;;5035575;28;20036;-73
2023/02/25 02:50:44;;;;;;;41.95;21.85;;;;;;;;;;5036733;28;20026;-74
2023/02/25 02:53:38;;;;;;;40.28;23.15;;;;;;;;;;5036239;28;20025;-73
2023/02/25 02:56:25;;;;;;;39.95;22.88;;;;;;;;;;5036932;28;20048;-75
2023/02/25 02:59:13;;;;;;;40.90;23.77;;;;;;;;;;5022052;28;20018;-75
2023/02/25 03:02:08;;;;;;;46.08;25.60;;;;;;;;;;5036458;28;20147;-73
2023/02/25 03:04:58;;;;;;;41.80;23.55;;;;;;;;;;5035796;28;20025;-75
2023/02/25 03:08:04;;;;;;;39.65;23.25;;;;;;;;;;5036344;28;20036;-73
2023/02/25 03:10:49;;;;;;;38.10;22.85;;;;;;;;;;5035240;28;20062;-74
2023/02/25 03:13:35;;;;;;;36.65;22.08;;;;;;;;;;5034873;28;20080;-73
2023/02/25 03:16:24;;;;;;;40.17;22.98;;;;;;;;;;5036407;28;20049;-72
2023/02/25 03:19:12;;;;;;;37.40;21.83;;;;;;;;;;5036314;28;20014;-71
2023/02/25 03:22:01;;;;;;;36.97;21.75;;;;;;;;;;5035016;28;20025;-73
2023/02/25 03:24:47;;;;;;;38.72;21.92;;;;;;;;;;5035168;28;20010;-73
2023/02/25 03:27:37;;;;;;;35.78;22.48;;;;;;;;;;5035986;28;20032;-74
2023/02/25 03:30:31;;;;;;;33.63;21.35;;;;;;;;;;5036340;28;20021;-72
2023/02/25 03:33:20;;;;;;;32.92;20.63;;;;;;;;;;5035389;28;20049;-73
2023/02/25 03:36:12;;;;;;;34.20;21.15;;;;;;;;;;5034801;28;20040;-72
2023/02/25 03:39:05;;;;;;;37.58;21.75;;;;;;;;;;5034453;28;20017;-73
2023/02/25 03:41:52;;;;;;;33.22;20.60;;;;;;;;;;5035236;28;20053;-72
2023/02/25 03:44:45;;;;;;;33.47;21.10;;;;;;;;;;5035806;28;20394;-72
2023/02/25 03:47:33;;;;;;;31.80;20.70;;;;;;;;;;5034987;28;20036;-73
2023/02/25 03:50:18;;;;;;;35.88;20.42;;;;;;;;;;5036149;28;20025;-73
2023/02/25 03:53:04;;;;;;;34.50;21.10;;;;;;;;;;5033847;28;20462;-72
2023/02/25 03:55:50;;;;;;;34.10;21.55;;;;;;;;;;5035771;28;20021;-73
2023/02/25 03:58:37;;;;;;;34.85;21.52;;;;;;;;;;5035941;28;20045;-73
2023/02/25 04:01:25;;;;;;;35.55;20.63;;;;;;;;;;5035866;28;20033;-73
2023/02/25 04:04:11;;;;;;;33.05;20.27;;;;;;;;;;5035344;28;20026;-72
2023/02/25 04:06:56;;;;;;;33.67;19.95;;;;;;;;;;5033790;28;20095;-73
2023/02/25 04:09:42;;;;;;;29.48;19.08;;;;;;;;;;5035113;28;20454;-72
2023/02/25 04:12:27;;;;;;;31.20;19.75;;;;;;;;;;5034635;28;20029;-74
2023/02/25 04:15:13;;;;;;;32.72;20.17;;;;;;;;;;5033898;28;20113;-72
2023/02/25 04:17:59;;;;;;;33.53;19.88;;;;;;;;;;5034499;28;20079;-73
2023/02/25 04:20:44;;;;;;;31.15;20.33;;;;;;;;;;5034147;28;20038;-72
2023/02/25 04:23:30;;;;;;;29.75;18.98;;;;;;;;;;5033908;28;20101;-72
2023/02/25 04:26:15;;;;;;;32.35;19.27;;;;;;;;;;5034307;28;20031;-73
2023/02/25 04:29:01;;;;;;;30.58;19.38;;;;;;;;;;5035576;28;20013;-72
2023/02/25 04:31:47;;;;;;;30.17;19.00;;;;;;;;;;5035078;28;20021;-71
2023/02/25 04:34:32;;;;;;;30.45;19.85;;;;;;;;;;5034719;28;20068;-73
2023/02/25 04:37:18;;;;;;;31.25;19.02;;;;;;;;;;5034624;28;20395;-73
2023/02/25 04:40:10;;;;;;;30.67;19.77;;;;;;;;;;5052614;28;20051;-73
2023/02/25 04:42:56;;;;;;;29.95;18.70;;;;;;;;;;5035993;28;20021;-73
2023/02/25 04:45:41;;;;;;;29.00;18.88;;;;;;;;;;5035233;28;20493;-73
2023/02/25 04:48:27;;;;;;;30.27;18.98;;;;;;;;;;5034024;28;20100;-73
2023/02/25 04:51:13;;;;;;;33.80;20.33;;;;;;;;;;5034504;28;20446;-74
2023/02/25 04:53:58;;;;;;;30.48;19.58;;;;;;;;;;5033617;28;20037;-72
2023/02/25 04:56:44;;;;;;;32.65;20.13;;;;;;;;;;5033731;28;20025;-72
2023/02/25 04:59:29;;;;;;;33.15;20.40;;;;;;;;;;5051929;28;20029;-72
2023/02/25 05:02:15;;;;;;;32.88;20.77;;;;;;;;;;5033754;28;20098;-73
2023/02/25 05:05:00;;;;;;;32.50;21.33;;;;;;;;;;5035199;28;20021;-73
2023/02/25 05:07:46;;;;;;;36.58;21.92;;;;;;;;;;5034742;28;20024;-74
2023/02/25 05:10:32;;;;;;;36.60;22.42;;;;;;;;;;5033427;28;20108;-73
2023/02/25 05:13:18;;;;;;;35.47;21.63;;;;;;;;;;5034861;28;20067;-72
2023/02/25 05:16:05;;;;;;;38.95;23.27;;;;;;;;;;5034994;28;20025;-73
2023/02/25 05:18:50;;;;;;;38.50;22.77;;;;;;;;;;5034636;28;20029;-73
2023/02/25 05:21:36;;;;;;;30.65;19.77;;;;;;;;;;5033379;28;20087;-72
2023/02/25 05:24:22;;;;;;;33.00;20.40;;;;;;;;;;5032986;28;20489;-72
2023/02/25 05:27:08;;;;;;;32.67;20.08;;;;;;;;;;5034282;28;20029;-73
2023/02/25 05:29:54;;;;;;;34.58;20.58;;;;;;;;;;5034669;28;20022;-72
2023/02/25 05:32:40;;;;;;;32.13;20.40;;;;;;;;;;5033871;28;20121;-73
2023/02/25 05:35:25;;;;;;;33.20;20.80;;;;;;;;;;5032771;28;20018;-73
2023/02/25 05:38:11;;;;;;;35.47;20.13;;;;;;;;;;5034338;28;20358;-73
2023/02/25 05:41:00;;;;;;;36.33;21.48;;;;;;;;;;5034242;28;20021;-73
2023/02/25 05:43:45;;;;;;;33.75;22.17;;;;;;;;;;5033373;28;20068;-73
2023/02/25 05:46:31;;;;;;;38.03;23.27;;;;;;;;;;5034129;28;20049;-73
2023/02/25 05:49:16;;;;;;;46.30;28.08;;;;;;;;;;5032722;28;20024;-73
2023/02/25 05:52:02;;;;;;;45.90;27.80;;;;;;;;;;5033699;28;20084;-73
2023/02/25 05:54:48;;;;;;;47.63;27.73;;;;;;;;;;5033039;28;20025;-73
2023/02/25 05:57:33;;;;;;;43.35;27.42;;;;;;;;;;5036482;28;20053;-73
2023/02/25 06:00:20;;;;;;;47.45;28.73;;;;;;;;;;5037836;28;20029;-74
2023/02/25 06:03:05;;;;;;;50.30;30.63;;;;;;;;;;5037157;28;20053;-73
2023/02/25 06:05:52;;;;;;;49.35;28.65;;;;;;;;;;5038961;28;20021;-73
2023/02/25 06:08:38;;;;;;;49.58;28.45;;;;;;;;;;5037542;28;20025;-74
2023/02/25 06:11:25;;;;;;;49.35;28.40;;;;;;;;;;5037744;28;20053;-73
2023/02/25 06:14:11;;;;;;;47.70;26.85;;;;;;;;;;5036904;28;20018;-73
2023/02/25 06:16:56;;;;;;;40.28;23.85;;;;;;;;;;5036455;28;20017;-73
2023/02/25 06:19:42;;;;;;;33.58;21.73;;;;;;;;;;5037223;28;20405;-73
2023/02/25 06:22:27;;;;;;;38.17;23.73;;;;;;;;;;5036802;28;20017;-73
2023/02/25 06:25:13;;;;;;;37.95;24.20;;;;;;;;;;5037464;28;20056;-73
2023/02/25 06:27:59;;;;;;;34.47;22.30;;;;;;;;;;5037028;28;20037;-74
2023/02/25 06:30:45;;;;;;;36.90;22.77;;;;;;;;;;5037283;28;20026;-74
2023/02/25 06:33:30;;;;;;;41.95;25.35;;;;;;;;;;5035042;28;20042;-74
2023/02/25 06:36:17;;;;;;;41.75;26.30;;;;;;;;;;5037349;28;20060;-74
2023/02/25 06:39:02;;;;;;;42.40;26.02;;;;;;;;;;5036591;28;20104;-76
2023/02/25 06:41:48;;;;;;;44.28;27.55;;;;;;;;;;5037170;28;20033;-74
2023/02/25 06:44:34;;;;;;;45.17;27.90;;;;;;;;;;5036343;28;20033;-74
2023/02/25 06:47:21;;;;;;;44.10;25.60;;;;;;;;;;5035394;28;20314;-74
2023/02/25 06:50:07;;;;;;;41.25;26.85;;;;;;;;;;5037559;28;20018;-75
2023/02/25 06:52:52;;;;;;;44.80;27.98;;;;;;;;;;5036736;28;20045;-74
2023/02/25 06:55:38;;;;;;;41.60;26.88;;;;;;;;;;5035769;28;20527;-73
2023/02/25 06:58:24;;;;;;;45.75;28.45;;;;;;;;;;5035715;28;20029;-74
2023/02/25 07:01:11;;;;;;;41.88;28.45;;;;;;;;;;5036538;28;20119;-73
2023/02/25 07:03:56;;;;;;;45.92;28.30;;;;;;;;;;5036394;28;20055;-74
2023/02/25 07:06:42;;;;;;;47.88;28.95;;;;;;;;;;5034543;28;20029;-73
2023/02/25 07:09:28;;;;;;;45.55;27.98;;;;;;;;;;5034225;28;20446;-73
2023/02/25 07:12:13;;;;;;;41.67;27.05;;;;;;;;;;5035320;28;20022;-74
2023/02/25 07:14:59;;;;;;;43.28;26.48;;;;;;;;;;5036778;28;20025;-75
2023/02/25 07:17:44;;;;;;;41.28;26.58;;;;;;;;;;5034733;28;20049;-74
2023/02/25 07:20:30;;;;;;;42.53;26.08;;;;;;;;;;5036543;28;20036;-74
2023/02/25 07:23:16;;;;;;;41.40;27.08;;;;;;;;;;5035371;28;20022;-74
2023/02/25 07:26:05;;;;;;;42.22;26.48;;;;;;;;;;5035742;28;20064;-75
2023/02/25 07:28:50;;;;;;;44.83;28.17;;;;;;;;;;5035653;28;20095;-74
2023/02/25 07:31:36;;;;;;;44.90;27.35;;;;;;;;;;5035074;28;20091;-74
2023/02/25 07:34:22;;;;;;;43.72;27.98;;;;;;;;;;5036320;28;20108;-72
2023/02/25 07:37:07;;;;;;;43.72;28.02;;;;;;;;;;5035294;28;20022;-71
2023/02/25 07:39:53;;;;;;;52.97;30.48;;;;;;;;;;5034167;28;20026;-73
2023/02/25 07:42:39;;;;;;;51.17;29.08;;;;;;;;;;5035952;28;20029;-74
2023/02/25 07:45:25;;;;;;;51.22;30.55;;;;;;;;;;5036099;28;20017;-72
2023/02/25 07:48:10;;;;;;;47.38;29.98;;;;;;;;;;5035899;28;20460;-74
2023/02/25 07:51:03;;;;;;;49.13;29.33;;;;;;;;;;5036803;28;20056;-74
2023/02/25 07:53:49;;;;;;;71.43;41.22;;;;;;;;;;5042619;28;20327;-73
2023/02/25 07:56:34;;;;;;;45.00;28.25;;;;;;;;;;5036837;28;20085;-74
2023/02/25 07:59:21;;;;;;;51.55;31.23;;;;;;;;;;5035540;28;20077;-73
2023/02/25 08:02:09;;;;;;;48.50;31.20;;;;;;;;;;5035806;28;20021;-73
2023/02/25 08:04:54;;;;;;;49.03;29.40;;;;;;;;;;5036475;28;20021;-71
2023/02/25 08:07:40;;;;;;;45.20;29.33;;;;;;;;;;5041086;28;20017;-72
2023/02/25 08:10:25;;;;;;;45.05;29.20;;;;;;;;;;5041841;28;20040;-72
2023/02/25 08:13:11;;;;;;;46.35;28.83;;;;;;;;;;5038445;28;20037;-73
2023/02/25 08:15:57;;;;;;;46.13;29.42;;;;;;;;;;5034102;28;20022;-73
2023/02/25 08:18:42;;;;;;;50.38;31.13;;;;;;;;;;5035482;28;20044;-72
2023/02/25 08:21:29;;;;;;;50.67;30.63;;;;;;;;;;5038493;28;20032;-71
2023/02/25 08:24:15;;;;;;;50.50;29.20;;;;;;;;;;5033709;28;20025;-72
2023/02/25 08:27:00;;;;;;;44.90;27.77;;;;;;;;;;5035019;28;20136;-71
2023/02/25 08:29:46;;;;;;;48.42;28.77;;;;;;;;;;5035230;28;20013;-70
2023/02/25 08:32:34;;;;;;;48.78;26.98;;;;;;;;;;5033192;28;20067;-73
2023/02/25 08:35:19;;;;;;;43.83;25.67;;;;;;;;;;5033943;28;20021;-73
2023/02/25 08:38:05;;;;;;;39.40;24.70;;;;;;;;;;5033012;28;20453;-72
2023/02/25 08:40:50;;;;;;;35.50;23.33;;;;;;;;;;5034874;28;20079;-72
2023/02/25 08:43:36;;;;;;;40.22;23.90;;;;;;;;;;5033614;28;20021;-73
2023/02/25 08:46:23;;;;;;;35.28;23.83;;;;;;;;;;5034754;28;20447;-72
2023/02/25 08:49:09;;;;;;;36.17;21.67;;;;;;;;;;5034908;28;20053;-73
2023/02/25 08:51:54;;;;;;;31.83;20.80;;;;;;;;;;5033692;28;20040;-74
2023/02/25 08:54:40;;;;;;;37.83;21.42;;;;;;;;;;5033069;28;20373;-72
2023/02/25 08:57:26;;;;;;;36.38;21.65;;;;;;;;;;5033508;28;20098;-73
2023/02/25 09:00:15;;;;;;;34.00;21.63;;;;;;;;;;5034949;28;20327;-72
2023/02/25 09:03:00;;;;;;;29.92;18.58;;;;;;;;;;5034752;28;20102;-73
2023/02/25 09:05:50;;;;;;;26.02;17.00;;;;;;;;;;5034530;28;20021;-72
2023/02/25 09:08:35;;;;;;;23.80;16.85;;;;;;;;;;5033659;28;20021;-72
2023/02/25 09:11:22;;;;;;;27.55;17.10;;;;;;;;;;5032589;28;20017;-72
2023/02/25 09:14:08;;;;;;;25.17;17.02;;;;;;;;;;5034015;28;20037;-73
2023/02/25 09:16:54;;;;;;;24.17;16.45;;;;;;;;;;5033827;28;20358;-73
2023/02/25 09:19:40;;;;;;;25.60;15.57;;;;;;;;;;5032933;28;20419;-73
2023/02/25 09:22:26;;;;;;;24.42;15.43;;;;;;;;;;5033382;28;20489;-71
2023/02/25 09:25:12;;;;;;;23.88;15.93;;;;;;;;;;5034460;28;20442;-73
2023/02/25 09:27:58;;;;;;;26.35;16.40;;;;;;;;;;5034630;28;20171;-74
2023/02/25 09:30:44;;;;;;;20.17;15.00;;;;;;;;;;5033096;28;20017;-73
2023/02/25 09:33:31;;;;;;;25.55;16.58;;;;;;;;;;5036764;28;20382;-72
2023/02/25 09:36:17;;;;;;;25.27;16.00;;;;;;;;;;5037245;28;20362;-72
2023/02/25 09:39:08;;;;;;;26.25;16.20;;;;;;;;;;5038726;28;20021;-74
2023/02/25 09:42:04;;;;;;;26.98;16.30;;;;;;;;;;5037682;28;20022;-73
2023/02/25 09:44:56;;;;;;;21.15;14.55;;;;;;;;;;5037153;28;20044;-72
2023/02/25 09:47:49;;;;;;;23.85;16.20;;;;;;;;;;5038210;28;20087;-73
2023/02/25 09:50:45;;;;;;;24.83;15.30;;;;;;;;;;5038179;28;20021;-73
2023/02/25 09:53:35;;;;;;;28.05;16.50;;;;;;;;;;5036953;28;20022;-72
2023/02/25 09:56:23;;;;;;;23.70;15.50;;;;;;;;;;5038130;28;20091;-74
2023/02/25 09:59:14;;;;;;;22.73;15.35;;;;;;;;;;5038050;28;20508;-73
2023/02/25 10:02:05;;;;;;;25.70;15.82;;;;;;;;;;5036818;28;20392;-73
2023/02/25 10:05:01;;;;;;;27.30;17.13;;;;;;;;;;5036763;28;20029;-73
2023/02/25 10:07:47;;;;;;;31.42;18.48;;;;;;;;;;5037724;28;20060;-74
2023/02/25 10:10:32;;;;;;;32.80;20.40;;;;;;;;;;5037470;28;20072;-74
2023/02/25 10:13:21;;;;;;;35.22;21.02;;;;;;;;;;5035782;28;20059;-75
2023/02/25 10:16:25;;;;;;;31.85;20.45;;;;;;;;;;5035646;28;20107;-74
2023/02/25 10:19:11;;;;;;;33.05;19.55;;;;;;;;;;5037217;28;20086;-73
2023/02/25 10:22:05;;;;;;;36.60;19.23;;;;;;;;;;5037150;28;20021;-74
2023/02/25 10:24:52;;;;;;;38.65;21.88;;;;;;;;;;5037446;28;20021;-76
2023/02/25 10:27:55;;;;;;;73.95;39.22;;;;;;;;;;5037595;28;20022;-73
2023/02/25 10:30:40;;;;;;;49.10;28.30;;;;;;;;;;5039037;28;20014;-75
2023/02/25 10:33:30;;;;;;;39.42;22.42;;;;;;;;;;5044479;28;20160;-74
2023/02/25 10:36:17;;;;;;;38.88;22.83;;;;;;;;;;5037256;28;20033;-73
2023/02/25 10:39:03;;;;;;;50.97;27.10;;;;;;;;;;5037057;28;20026;-73
2023/02/25 10:41:49;;;;;;;37.38;22.08;;;;;;;;;;5035322;28;20354;-73
2023/02/25 10:44:34;;;;;;;38.47;22.60;;;;;;;;;;5037605;28;20021;-74
2023/02/25 10:47:27;;;;;;;36.08;22.00;;;;;;;;;;5036014;28;20021;-73
2023/02/25 10:50:13;;;;;;;37.42;22.10;;;;;;;;;;5037758;28;20037;-74
2023/02/25 10:53:03;;;;;;;34.97;22.02;;;;;;;;;;5040917;28;20453;-73
2023/02/25 10:55:53;;;;;;;34.15;20.20;;;;;;;;;;5038134;28;20450;-74
2023/02/25 10:58:40;;;;;;;39.65;22.77;;;;;;;;;;5036381;28;20028;-73
2023/02/25 11:01:33;;;;;;;36.63;21.25;;;;;;;;;;5034978;28;20025;-71
2023/02/25 11:04:37;;;;;;;39.72;20.75;;;;;;;;;;5036816;28;20017;-71
2023/02/25 11:07:28;;;;;;;30.65;19.92;;;;;;;;;;5035345;28;20021;-72
2023/02/25 11:10:16;;;;;;;39.13;22.00;;;;;;;;;;5035898;28;20028;-73
2023/02/25 11:13:04;;;;;;;33.65;21.05;;;;;;;;;;5036546;28;20025;-72
2023/02/25 11:15:50;;;;;;;32.05;19.67;;;;;;;;;;5035690;28;20057;-74
2023/02/25 11:18:37;;;;;;;34.88;21.23;;;;;;;;;;5036310;28;20032;-73
2023/02/25 11:21:49;;;;;;;35.03;21.85;;;;;;;;;;5036413;28;20021;-71
2023/02/25 11:24:37;;;;;;;45.13;26.25;;;;;;;;;;5035283;28;20103;-72
2023/02/25 11:27:34;;;;;;;44.33;26.13;;;;;;;;;;5035207;28;20078;-73
2023/02/25 11:30:25;;;;;;;41.97;24.90;;;;;;;;;;5034590;28;20017;-73
2023/02/25 11:33:20;;;;;;;38.17;23.23;;;;;;;;;;5035360;28;20057;-72
2023/02/25 11:36:06;;;;;;;39.22;22.42;;;;;;;;;;5036138;28;20049;-72
2023/02/25 11:39:03;;;;;;;36.22;21.15;;;;;;;;;;5034826;28;20068;-73
2023/02/25 11:41:50;;;;;;;33.00;19.15;;;;;;;;;;5035048;28;20350;-72
2023/02/25 11:44:43;;;;;;;31.30;18.60;;;;;;;;;;5036082;28;20022;-72
2023/02/25 11:47:33;;;;;;;27.73;18.10;;;;;;;;;;5035515;28;20458;-73
2023/02/25 11:50:33;;;;;;;26.92;17.77;;;;;;;;;;5035967;28;20422;-72
2023/02/25 11:53:34;;;;;;;28.05;15.45;;;;;;;;;;5035264;28;20041;-74
2023/02/25 11:56:20;;;;;;;24.95;14.07;;;;;;;;;;5035232;28;20025;-73
2023/02/25 11:59:09;;;;;;;29.13;13.80;;;;;;;;;;5033558;28;20108;-72
2023/02/25 12:02:13;;;;;;;29.00;14.45;;;;;;;;;;5035332;28;20025;-73
2023/02/25 12:05:02;;;;;;;25.63;14.43;;;;;;;;;;5034961;28;20017;-73
2023/02/25 12:07:59;;;;;;;28.35;14.90;;;;;;;;;;5035800;28;20029;-73
2023/02/25 12:10:45;;;;;;;29.25;15.20;;;;;;;;;;5034322;28;20031;-73
2023/02/25 12:13:57;;;;;;;29.58;15.10;;;;;;;;;;5034958;28;20025;-72
2023/02/25 12:17:03;;;;;;;30.55;13.88;;;;;;;;;;5034711;28;20076;-74
2023/02/25 12:20:03;;;;;;;27.38;13.98;;;;;;;;;;5035736;28;20034;-72
2023/02/25 12:23:07;;;;;;;31.88;14.90;;;;;;;;;;5033426;28;20021;-71
2023/02/25 12:26:02;;;;;;;27.20;14.88;;;;;;;;;;5035655;28;20063;-72
2023/02/25 12:29:17;;;;;;;28.67;14.02;;;;;;;;;;5035172;28;20030;-72
2023/02/25 12:32:03;;;;;;;29.05;14.30;;;;;;;;;;5003689;28;20033;-74
2023/02/25 12:34:48;;;;;;;25.30;15.20;;;;;;;;;;5036184;28;20342;-73
2023/02/25 12:37:40;;;;;;;32.08;14.75;;;;;;;;;;5033612;28;20080;-72
2023/02/25 12:40:28;;;;;;;33.13;15.52;;;;;;;;;;5033528;28;20099;-71
2023/02/25 12:43:27;;;;;;;30.23;15.88;;;;;;;;;;5033478;28;20022;-71
2023/02/25 12:46:29;;;;;;;36.10;18.40;;;;;;;;;;5035484;28;20306;-73
2023/02/25 12:49:33;;;;;;;32.35;18.70;;;;;;;;;;5033737;28;20010;-72
2023/02/25 12:52:34;;;;;;;38.13;19.92;;;;;;;;;;5034586;28;20018;-73
2023/02/25 12:55:20;;;;;;;33.58;18.48;;;;;;;;;;5035878;28;20036;-73
2023/02/25 12:58:25;;;;;;;36.33;17.70;;;;;;;;;;5035934;28;20358;-72
2023/02/25 13:01:27;;;;;;;35.92;17.90;;;;;;;;;;5034487;28;20090;-73
2023/02/25 13:04:31;;;;;;;35.45;17.30;;;;;;;;;;5036590;28;20081;-73
2023/02/25 13:07:35;;;;;;;31.08;17.45;;;;;;;;;;5038679;28;20413;-72
2023/02/25 13:10:39;;;;;;;32.03;18.77;;;;;;;;;;5038786;28;20028;-74
2023/02/25 13:13:45;;;;;;;33.60;18.60;;;;;;;;;;5040289;28;20112;-73
2023/02/25 13:16:42;;;;;;;35.25;17.90;;;;;;;;;;5038493;28;20018;-73
2023/02/25 13:19:40;;;;;;;32.63;18.02;;;;;;;;;;5038771;28;20022;-74
2023/02/25 13:22:28;;;;;;;32.05;17.00;;;;;;;;;;5037017;28;20382;-73
2023/02/25 13:25:14;;;;;;;30.35;17.42;;;;;;;;;;5038650;28;20083;-71
2023/02/25 13:28:15;;;;;;;32.63;17.77;;;;;;;;;;5038427;28;20026;-73
2023/02/25 13:31:19;;;;;;;28.25;17.33;;;;;;;;;;5037452;28;20071;-72
2023/02/25 13:34:20;;;;;;;37.83;18.13;;;;;;;;;;5038257;28;20120;-74
2023/02/25 13:37:05;;;;;;;85.50;46.08;;;;;;;;;;5037126;28;20018;-73
2023/02/25 13:39:59;;;;;;;64.68;35.90;;;;;;;;;;5036453;28;20063;-71
2023/02/25 13:42:48;;;;;;;43.88;25.20;;;;;;;;;;5037513;28;20108;-73
2023/02/25 13:45:49;;;;;;;32.92;18.65;;;;;;;;;;5038986;28;20092;-74
2023/02/25 13:48:44;;;;;;;36.13;17.80;;;;;;;;;;5037472;28;20078;-73
2023/02/25 13:51:33;;;;;;;35.33;17.98;;;;;;;;;;5039270;28;20033;-72
2023/02/25 13:54:28;;;;;;;34.58;18.77;;;;;;;;;;5045587;28;20091;-71
2023/02/25 13:57:14;;;;;;;36.72;18.05;;;;;;;;;;5042416;28;20041;-72
2023/02/25 14:00:18;;;;;;;34.28;18.70;;;;;;;;;;5043146;28;20021;-72
2023/02/25 14:03:23;;;;;;;34.58;19.02;;;;;;;;;;5037105;28;20095;-72
2023/02/25 14:06:20;;;;;;;38.25;18.92;;;;;;;;;;5037286;28;20029;-70
2023/02/25 14:09:21;;;;;;;34.10;18.60;;;;;;;;;;5037826;28;20083;-70
2023/02/25 14:12:22;;;;;;;35.95;18.38;;;;;;;;;;5038287;28;20029;-71
2023/02/25 14:15:16;;;;;;;35.85;19.35;;;;;;;;;;5037992;28;20029;-72
2023/02/25 14:18:09;;;;;;;38.97;19.88;;;;;;;;;;5037810;28;20026;-70
2023/02/25 14:21:27;;;;;;;44.15;21.27;;;;;;;;;;5039068;28;20021;-69
2023/02/25 14:24:32;;;;;;;41.85;21.35;;;;;;;;;;5020299;28;20037;-69
2023/02/25 14:27:30;;;;;;;40.03;20.83;;;;;;;;;;5036754;28;20040;-70
2023/02/25 14:30:21;;;;;;;41.00;21.08;;;;;;;;;;5036240;28;20021;-70
2023/02/25 14:33:19;;;;;;;47.97;21.90;;;;;;;;;;5036551;28;20087;-70
2023/02/25 14:36:25;;;;;;;53.92;25.35;;;;;;;;;;5036385;28;20053;-71
2023/02/25 14:39:31;;;;;;;46.67;23.20;;;;;;;;;;5035910;28;20108;-70
2023/02/25 14:42:36;;;;;;;34.90;20.60;;;;;;;;;;5035823;28;20025;-74
2023/02/25 14:45:28;;;;;;;41.45;21.67;;;;;;;;;;5036112;28;20025;-73
2023/02/25 14:48:13;;;;;;;44.83;22.75;;;;;;;;;;5023202;28;20018;-72
2023/02/25 14:51:20;;;;;;;50.65;24.00;;;;;;;;;;5035711;28;20323;-71
2023/02/25 14:54:09;;;;;;;53.63;25.95;;;;;;;;;;5036319;28;20044;-70
2023/02/25 14:56:55;;;;;;;59.08;28.20;;;;;;;;;;5035818;28;20429;-71
2023/02/25 15:00:01;;;;;;;56.25;27.25;;;;;;;;;;5036564;28;20430;-72
2023/02/25 15:03:02;;;;;;;44.42;23.65;;;;;;;;;;5035281;28;20029;-71
2023/02/25 15:06:17;;;;;;;54.03;24.65;;;;;;;;;;5035921;28;20040;-71
2023/02/25 15:09:14;;;;;;;48.17;23.60;;;;;;;;;;5035162;28;20522;-71
2023/02/25 15:12:06;;;;;;;42.67;22.83;;;;;;;;;;5034822;28;20093;-73
2023/02/25 15:15:01;;;;;;;42.20;21.55;;;;;;;;;;5035255;28;20021;-71
2023/02/25 15:18:06;;;;;;;44.28;21.23;;;;;;;;;;5036180;28;20110;-72
2023/02/25 15:20:51;;;;;;;37.22;20.85;;;;;;;;;;5035125;28;20072;-71
2023/02/25 15:23:41;;;;;;;38.20;20.60;;;;;;;;;;5036775;28;20021;-71
2023/02/25 15:26:41;;;;;;;42.22;20.88;;;;;;;;;;5035811;28;20021;-73
2023/02/25 15:29:26;;;;;;;36.65;20.92;;;;;;;;;;5034655;28;20017;-72
2023/02/25 15:32:29;;;;;;;40.55;21.38;;;;;;;;;;5034199;28;20099;-72
2023/02/25 15:35:20;;;;;;;35.30;20.10;;;;;;;;;;5034862;28;20056;-73
2023/02/25 15:38:12;;;;;;;51.38;21.40;;;;;;;;;;5034996;28;20025;-73
2023/02/25 15:40:58;;;;;;;44.08;21.48;;;;;;;;;;5035869;28;20099;-73
2023/02/25 15:43:44;;;;;;;42.70;23.33;;;;;;;;;;5036082;28;20033;-71
2023/02/25 15:46:32;;;;;;;41.45;21.10;;;;;;;;;;5036532;28;20429;-73
2023/02/25 15:49:32;;;;;;;40.13;20.30;;;;;;;;;;5034627;28;20397;-74
2023/02/25 15:52:36;;;;;;;51.30;20.98;;;;;;;;;;5036263;28;20036;-73
2023/02/25 15:55:31;;;;;;;40.53;20.95;;;;;;;;;;5035728;28;20029;-73
2023/02/25 15:58:22;;;;;;;48.20;21.73;;;;;;;;;;5034916;28;20033;-72
2023/02/25 16:01:22;;;;;;;45.28;21.67;;;;;;;;;;5038544;28;20122;-73
2023/02/25 16:04:26;;;;;;;41.80;21.17;;;;;;;;;;5036344;28;20155;-74
2023/02/25 16:07:13;;;;;;;36.42;19.67;;;;;;;;;;5035759;28;20423;-73
2023/02/25 16:10:17;;;;;;;43.40;20.17;;;;;;;;;;5035907;28;20017;-73
2023/02/25 16:13:02;;;;;;;35.83;20.63;;;;;;;;;;5035795;28;20434;-74
2023/02/25 16:15:51;;;;;;;44.65;20.60;;;;;;;;;;5034705;28;20025;-75
2023/02/25 16:18:46;;;;;;;40.45;20.10;;;;;;;;;;5035221;28;20366;-73
2023/02/25 16:21:44;;;;;;;39.70;20.77;;;;;;;;;;5037103;28;20025;-73
2023/02/25 16:24:30;;;;;;;39.55;20.40;;;;;;;;;;5035382;28;20362;-73
2023/02/25 16:27:51;;;;;;;40.10;20.00;;;;;;;;;;5036049;28;20091;-73
2023/02/25 16:30:40;;;;;;;40.80;19.65;;;;;;;;;;4980502;28;20022;-71